sensor_id;sensor_type;location;lat;lon;timestamp;pressure;altitude;pressure_sealevel;temperature;humidity
3254;BME280;1639;42.804;23.342;2023-04-20T00:01:52;73181.19;;;-148.52;100.00
3254;BME280;1639;42.804;23.342;2023-04-20T00:04:17;73174.97;;;-148.52;100.00
3254;BME280;1639;42.804;23.342;2023-04-20T00:06:43;73172.91;;;-148.52;100.00
3254;BME280;1639;42.804;23.342;2023-04-20T00:09:11;73158.44;;;-148.52;100.00
3254;BME280;1639;42.804;23.342;2023-04-20T00:11:37;73154.28;;;-148.52;100.00
3254;BME280;1639;42.804;23.342;2023-04-20T00:14:02;73156.34;;;-148.52;100.00
3254;BME280;1639;42.804;23.342;2023-04-20T00:16:28;73143.94;;;-148.52;100.00
3254;BME280;1639;42.804;23.342;2023-04-20T00:18:54;73146.00;;;-148.52;100.00
3254;BME280;1639;42.804;23.342;2023-04-20T00:21:20;73146.00;;;-148.52;100.00
3254;BME280;1639;42.804;23.342;2023-04-20T00:23:51;73162.56;;;-148.52;100.00
3254;BME280;1639;42.804;23.342;2023-04-20T00:26:17;73154.28;;;-148.52;100.00
3254;BME280;1639;42.804;23.342;2023-04-20T00:28:43;73141.88;;;-148.52;100.00
3254;BME280;1639;42.804;23.342;2023-04-20T00:31:08;73129.47;;;-148.52;100.00
3254;BME280;1639;42.804;23.342;2023-04-20T00:33:34;73121.19;;;-148.52;100.00
3254;BME280;1639;42.804;23.342;2023-04-20T00:36:00;73127.41;;;-148.52;100.00
3254;BME280;1639;42.804;23.342;2023-04-20T00:38:26;73125.34;;;-148.52;100.00
3254;BME280;1639;42.804;23.342;2023-04-20T00:40:52;73123.25;;;-148.52;100.00
3254;BME280;1639;42.804;23.342;2023-04-20T00:43:20;73137.75;;;-148.52;100.00
3254;BME280;1639;42.804;23.342;2023-04-20T00:45:46;73141.88;;;-148.52;100.00
3254;BME280;1639;42.804;23.342;2023-04-20T00:48:12;73154.28;;;-148.52;100.00
3254;BME280;1639;42.804;23.342;2023-04-20T00:50:38;73154.28;;;-148.52;100.00
3254;BME280;1639;42.804;23.342;2023-04-20T00:53:05;73160.50;;;-148.52;100.00
3254;BME280;1639;42.804;23.342;2023-04-20T00:55:31;73160.50;;;-148.52;100.00
3254;BME280;1639;42.804;23.342;2023-04-20T00:57:56;73162.56;;;-148.52;100.00
3254;BME280;1639;42.804;23.342;2023-04-20T01:00:22;73154.28;;;-148.52;100.00
3254;BME280;1639;42.804;23.342;2023-04-20T01:02:48;73146.00;;;-148.52;100.00
3254;BME280;1639;42.804;23.342;2023-04-20T01:05:13;73139.81;;;-148.52;100.00
3254;BME280;1639;42.804;23.342;2023-04-20T01:07:39;73129.47;;;-148.52;100.00
3254;BME280;1639;42.804;23.342;2023-04-20T01:10:08;73119.13;;;-148.52;100.00
3254;BME280;1639;42.804;23.342;2023-04-20T01:12:34;73121.19;;;-148.52;100.00
3254;BME280;1639;42.804;23.342;2023-04-20T01:15:00;73129.47;;;-148.52;100.00
3254;BME280;1639;42.804;23.342;2023-04-20T01:17:26;73133.59;;;-148.52;100.00
3254;BME280;1639;42.804;23.342;2023-04-20T01:19:51;73133.59;;;-148.52;100.00
3254;BME280;1639;42.804;23.342;2023-04-20T01:22:18;73133.59;;;-148.52;100.00
3254;BME280;1639;42.804;23.342;2023-04-20T01:24:44;73125.34;;;-148.52;100.00
3254;BME280;1639;42.804;23.342;2023-04-20T01:27:10;73137.75;;;-148.52;100.00
3254;BME280;1639;42.804;23.342;2023-04-20T01:29:36;73131.53;;;-148.52;100.00
3254;BME280;1639;42.804;23.342;2023-04-20T01:32:01;73125.34;;;-148.52;100.00
3254;BME280;1639;42.804;23.342;2023-04-20T01:34:27;73121.19;;;-148.52;100.00
3254;BME280;1639;42.804;23.342;2023-04-20T01:36:52;73110.84;;;-148.52;100.00
3254;BME280;1639;42.804;23.342;2023-04-20T01:39:18;73115.00;;;-148.52;100.00
3254;BME280;1639;42.804;23.342;2023-04-20T01:41:43;73108.78;;;-148.52;100.00
3254;BME280;1639;42.804;23.342;2023-04-20T01:44:09;73121.19;;;-148.52;100.00
3254;BME280;1639;42.804;23.342;2023-04-20T01:46:38;73121.19;;;-148.52;100.00
3254;BME280;1639;42.804;23.342;2023-04-20T01:49:04;73125.34;;;-148.52;100.00
3254;BME280;1639;42.804;23.342;2023-04-20T01:51:31;73162.56;;;-148.52;100.00
3254;BME280;1639;42.804;23.342;2023-04-20T01:53:57;73166.69;;;-148.52;100.00
3254;BME280;1639;42.804;23.342;2023-04-20T01:56:23;73168.75;;;-148.52;100.00
3254;BME280;1639;42.804;23.342;2023-04-20T01:58:48;73185.31;;;-148.52;100.00
3254;BME280;1639;42.804;23.342;2023-04-20T02:01:14;73210.13;;;-148.52;100.00
3254;BME280;1639;42.804;23.342;2023-04-20T02:03:39;73239.09;;;-148.52;100.00
3254;BME280;1639;42.804;23.342;2023-04-20T02:06:05;73241.16;;;-148.52;100.00
3254;BME280;1639;42.804;23.342;2023-04-20T02:08:31;73237.03;;;-148.52;100.00
3254;BME280;1639;42.804;23.342;2023-04-20T02:10:57;73249.44;;;-148.52;100.00
3254;BME280;1639;42.804;23.342;2023-04-20T02:13:22;73247.38;;;-148.52;100.00
3254;BME280;1639;42.804;23.342;2023-04-20T02:15:48;73265.97;;;-148.52;100.00
3254;BME280;1639;42.804;23.342;2023-04-20T02:18:13;73274.25;;;-148.52;100.00
3254;BME280;1639;42.804;23.342;2023-04-20T02:20:40;73276.31;;;-148.52;100.00
3254;BME280;1639;42.804;23.342;2023-04-20T02:23:06;73270.13;;;-148.52;100.00
3254;BME280;1639;42.804;23.342;2023-04-20T02:25:31;73278.38;;;-148.52;100.00
3254;BME280;1639;42.804;23.342;2023-04-20T02:27:57;73276.31;;;-148.52;100.00
3254;BME280;1639;42.804;23.342;2023-04-20T02:30:22;73276.31;;;-148.52;100.00
3254;BME280;1639;42.804;23.342;2023-04-20T02:32:48;73288.72;;;-148.52;100.00
3254;BME280;1639;42.804;23.342;2023-04-20T02:35:13;73309.41;;;-148.52;100.00
3254;BME280;1639;42.804;23.342;2023-04-20T02:37:38;73336.31;;;-148.52;100.00
3254;BME280;1639;42.804;23.342;2023-04-20T02:40:05;73348.72;;;-148.52;100.00
3254;BME280;1639;42.804;23.342;2023-04-20T02:42:31;73359.06;;;-148.52;100.00
3254;BME280;1639;42.804;23.342;2023-04-20T02:44:56;73377.66;;;-148.52;100.00
3254;BME280;1639;42.804;23.342;2023-04-20T02:47:22;73377.66;;;-148.52;100.00
3254;BME280;1639;42.804;23.342;2023-04-20T02:49:47;73388.00;;;-148.52;100.00
3254;BME280;1639;42.804;23.342;2023-04-20T02:52:13;73394.22;;;-148.52;100.00
3254;BME280;1639;42.804;23.342;2023-04-20T02:54:38;73396.28;;;-148.52;100.00
3254;BME280;1639;42.804;23.342;2023-04-20T02:57:04;73390.09;;;-148.52;100.00
3254;BME280;1639;42.804;23.342;2023-04-20T02:59:29;73400.41;;;-148.52;100.00
3254;BME280;1639;42.804;23.342;2023-04-20T03:01:55;73410.75;;;-148.52;100.00
3254;BME280;1639;42.804;23.342;2023-04-20T03:04:20;73398.34;;;-148.52;100.00
3254;BME280;1639;42.804;23.342;2023-04-20T03:06:46;73394.22;;;-148.52;100.00
3254;BME280;1639;42.804;23.342;2023-04-20T03:09:14;73375.59;;;-148.52;100.00
3254;BME280;1639;42.804;23.342;2023-04-20T03:11:39;73379.75;;;-148.52;100.00
3254;BME280;1639;42.804;23.342;2023-04-20T03:14:05;73363.19;;;-148.52;100.00
3254;BME280;1639;42.804;23.342;2023-04-20T03:16:30;73354.91;;;-148.52;100.00
3254;BME280;1639;42.804;23.342;2023-04-20T03:18:55;73336.31;;;-148.52;100.00
3254;BME280;1639;42.804;23.342;2023-04-20T03:21:21;73332.16;;;-148.52;100.00
3254;BME280;1639;42.804;23.342;2023-04-20T03:23:47;73311.47;;;-148.52;100.00
3254;BME280;1639;42.804;23.342;2023-04-20T03:26:12;73301.13;;;-148.52;100.00
3254;BME280;1639;42.804;23.342;2023-04-20T03:28:37;73290.81;;;-148.52;100.00
3254;BME280;1639;42.804;23.342;2023-04-20T03:31:03;73292.88;;;-148.52;100.00
3254;BME280;1639;42.804;23.342;2023-04-20T03:33:30;73282.53;;;-148.52;100.00
3254;BME280;1639;42.804;23.342;2023-04-20T03:35:56;73274.25;;;-148.52;100.00
3254;BME280;1639;42.804;23.342;2023-04-20T03:38:21;73274.25;;;-148.52;100.00
3254;BME280;1639;42.804;23.342;2023-04-20T03:40:47;73297.00;;;-148.52;100.00
3254;BME280;1639;42.804;23.342;2023-04-20T03:43:12;73286.66;;;-148.52;100.00
3254;BME280;1639;42.804;23.342;2023-04-20T03:45:37;73272.19;;;-148.52;100.00
3254;BME280;1639;42.804;23.342;2023-04-20T03:48:03;73261.84;;;-148.52;100.00
3254;BME280;1639;42.804;23.342;2023-04-20T03:50:29;73257.72;;;-148.52;100.00
3254;BME280;1639;42.804;23.342;2023-04-20T03:52:54;73253.56;;;-148.52;100.00
3254;BME280;1639;42.804;23.342;2023-04-20T03:55:20;73243.22;;;-148.52;100.00
3254;BME280;1639;42.804;23.342;2023-04-20T03:57:45;73237.03;;;-148.52;100.00
3254;BME280;1639;42.804;23.342;2023-04-20T04:00:11;73232.88;;;-148.52;100.00
3254;BME280;1639;42.804;23.342;2023-04-20T04:02:37;73232.88;;;-148.52;100.00
3254;BME280;1639;42.804;23.342;2023-04-20T04:05:02;73232.88;;;-148.52;100.00
3254;BME280;1639;42.804;23.342;2023-04-20T04:07:28;73224.63;;;-148.52;100.00
3254;BME280;1639;42.804;23.342;2023-04-20T04:09:53;73214.28;;;-148.52;100.00
3254;BME280;1639;42.804;23.342;2023-04-20T04:12:19;73220.47;;;-148.52;100.00
3254;BME280;1639;42.804;23.342;2023-04-20T04:14:44;73206.00;;;-148.52;100.00
3254;BME280;1639;42.804;23.342;2023-04-20T04:17:09;73208.06;;;-148.52;100.00
3254;BME280;1639;42.804;23.342;2023-04-20T04:19:35;73201.84;;;-148.52;100.00
3254;BME280;1639;42.804;23.342;2023-04-20T04:22:00;73193.59;;;-148.52;100.00
3254;BME280;1639;42.804;23.342;2023-04-20T04:24:25;73189.44;;;-148.52;100.00
3254;BME280;1639;42.804;23.342;2023-04-20T04:26:52;73179.09;;;-148.52;100.00
3254;BME280;1639;42.804;23.342;2023-04-20T04:29:23;73179.09;;;-148.52;100.00
3254;BME280;1639;42.804;23.342;2023-04-20T04:31:50;73208.06;;;-148.52;100.00
3254;BME280;1639;42.804;23.342;2023-04-20T04:34:15;73199.78;;;-148.52;100.00
3254;BME280;1639;42.804;23.342;2023-04-20T04:36:42;73212.19;;;-148.52;100.00
3254;BME280;1639;42.804;23.342;2023-04-20T04:39:08;73203.94;;;-148.52;100.00
3254;BME280;1639;42.804;23.342;2023-04-20T04:41:33;73189.44;;;-148.52;100.00
3254;BME280;1639;42.804;23.342;2023-04-20T04:44:00;73189.44;;;-148.52;100.00
3254;BME280;1639;42.804;23.342;2023-04-20T04:46:27;73170.84;;;-148.52;100.00
3254;BME280;1639;42.804;23.342;2023-04-20T04:48:52;73160.50;;;-148.52;100.00
3254;BME280;1639;42.804;23.342;2023-04-20T04:51:18;73160.50;;;-148.52;100.00
3254;BME280;1639;42.804;23.342;2023-04-20T04:53:43;73168.75;;;-148.52;100.00
3254;BME280;1639;42.804;23.342;2023-04-20T04:56:10;73174.97;;;-148.52;100.00
3254;BME280;1639;42.804;23.342;2023-04-20T04:58:37;73174.97;;;-148.52;100.00
3254;BME280;1639;42.804;23.342;2023-04-20T05:01:03;73181.19;;;-148.52;100.00
3254;BME280;1639;42.804;23.342;2023-04-20T05:03:28;73172.91;;;-148.52;100.00
3254;BME280;1639;42.804;23.342;2023-04-20T05:05:53;73170.84;;;-148.52;100.00
3254;BME280;1639;42.804;23.342;2023-04-20T05:08:20;73164.63;;;-148.52;100.00
3254;BME280;1639;42.804;23.342;2023-04-20T05:10:45;73170.84;;;-148.52;100.00
3254;BME280;1639;42.804;23.342;2023-04-20T05:13:11;73154.28;;;-148.52;100.00
3254;BME280;1639;42.804;23.342;2023-04-20T05:15:36;73146.00;;;-148.52;100.00
3254;BME280;1639;42.804;23.342;2023-04-20T05:18:01;73154.28;;;-148.52;100.00
3254;BME280;1639;42.804;23.342;2023-04-20T05:20:27;73154.28;;;-148.52;100.00
3254;BME280;1639;42.804;23.342;2023-04-20T05:22:53;73150.16;;;-148.52;100.00
3254;BME280;1639;42.804;23.342;2023-04-20T05:25:18;73137.75;;;-148.52;100.00
3254;BME280;1639;42.804;23.342;2023-04-20T05:27:44;73141.88;;;-148.52;100.00
3254;BME280;1639;42.804;23.342;2023-04-20T05:30:09;73139.81;;;-148.52;100.00
3254;BME280;1639;42.804;23.342;2023-04-20T05:32:35;73137.75;;;-148.52;100.00
3254;BME280;1639;42.804;23.342;2023-04-20T05:35:00;73123.25;;;-148.52;100.00
3254;BME280;1639;42.804;23.342;2023-04-20T05:37:25;73121.19;;;-148.52;100.00
3254;BME280;1639;42.804;23.342;2023-04-20T05:39:51;73127.41;;;-148.52;100.00
3254;BME280;1639;42.804;23.342;2023-04-20T05:42:17;73117.06;;;-148.52;100.00
3254;BME280;1639;42.804;23.342;2023-04-20T05:44:42;73104.66;;;-148.52;100.00
3254;BME280;1639;42.804;23.342;2023-04-20T05:47:08;73088.09;;;-148.52;100.00
3254;BME280;1639;42.804;23.342;2023-04-20T05:49:34;73079.84;;;-148.52;100.00
3254;BME280;1639;42.804;23.342;2023-04-20T05:52:00;73077.75;;;-148.52;100.00
3254;BME280;1639;42.804;23.342;2023-04-20T05:54:26;73079.84;;;-148.52;100.00
3254;BME280;1639;42.804;23.342;2023-04-20T05:56:53;73069.50;;;-148.52;100.00
3254;BME280;1639;42.804;23.342;2023-04-20T05:59:19;73069.50;;;-148.52;100.00
3254;BME280;1639;42.804;23.342;2023-04-20T06:01:44;73055.00;;;-148.52;100.00
3254;BME280;1639;42.804;23.342;2023-04-20T06:04:09;73050.88;;;-148.52;100.00
3254;BME280;1639;42.804;23.342;2023-04-20T06:06:35;73038.47;;;-148.52;100.00
3254;BME280;1639;42.804;23.342;2023-04-20T06:09:00;73026.06;;;-148.52;100.00
3254;BME280;1639;42.804;23.342;2023-04-20T06:11:26;73017.78;;;-148.52;100.00
3254;BME280;1639;42.804;23.342;2023-04-20T06:13:51;73007.44;;;-148.52;100.00
3254;BME280;1639;42.804;23.342;2023-04-20T06:16:16;73003.31;;;-148.52;100.00
3254;BME280;1639;42.804;23.342;2023-04-20T06:18:42;73013.66;;;-148.52;100.00
3254;BME280;1639;42.804;23.342;2023-04-20T06:21:11;73013.66;;;-148.52;100.00
3254;BME280;1639;42.804;23.342;2023-04-20T06:23:36;73019.84;;;-148.52;100.00
3254;BME280;1639;42.804;23.342;2023-04-20T06:26:03;73019.84;;;-148.52;100.00
3254;BME280;1639;42.804;23.342;2023-04-20T06:28:28;73019.84;;;-148.52;100.00
3254;BME280;1639;42.804;23.342;2023-04-20T06:30:54;73021.91;;;-148.52;100.00
3254;BME280;1639;42.804;23.342;2023-04-20T06:33:20;73017.78;;;-148.52;100.00
3254;BME280;1639;42.804;23.342;2023-04-20T06:35:45;73024.00;;;-148.52;100.00
3254;BME280;1639;42.804;23.342;2023-04-20T06:38:11;73021.91;;;-148.52;100.00
3254;BME280;1639;42.804;23.342;2023-04-20T06:40:36;73009.50;;;-148.52;100.00
3254;BME280;1639;42.804;23.342;2023-04-20T06:43:02;73005.38;;;-148.52;100.00
3254;BME280;1639;42.804;23.342;2023-04-20T06:45:27;72997.09;;;-148.52;100.00
3254;BME280;1639;42.804;23.342;2023-04-20T06:47:52;72980.56;;;-148.52;100.00
3254;BME280;1639;42.804;23.342;2023-04-20T06:50:18;72972.28;;;-148.52;100.00
3254;BME280;1639;42.804;23.342;2023-04-20T06:52:43;72966.06;;;-148.52;100.00
3254;BME280;1639;42.804;23.342;2023-04-20T06:55:10;72949.53;;;-148.52;100.00
3254;BME280;1639;42.804;23.342;2023-04-20T06:57:35;72935.06;;;-148.52;100.00
3254;BME280;1639;42.804;23.342;2023-04-20T07:00:08;72922.66;;;-148.52;100.00
3254;BME280;1639;42.804;23.342;2023-04-20T07:02:49;72916.44;;;-148.52;100.00
3254;BME280;1639;42.804;23.342;2023-04-20T07:05:15;72901.97;;;-148.52;100.00
3254;BME280;1639;42.804;23.342;2023-04-20T07:07:41;72891.63;;;-148.52;100.00
3254;BME280;1639;42.804;23.342;2023-04-20T07:10:09;72875.06;;;-148.52;100.00
3254;BME280;1639;42.804;23.342;2023-04-20T07:12:35;72864.75;;;-148.52;100.00
3254;BME280;1639;42.804;23.342;2023-04-20T07:15:05;72846.13;;;-148.52;100.00
3254;BME280;1639;42.804;23.342;2023-04-20T07:17:32;72839.91;;;-148.52;100.00
3254;BME280;1639;42.804;23.342;2023-04-20T07:19:57;72831.66;;;-148.52;100.00
3254;BME280;1639;42.804;23.342;2023-04-20T07:22:30;72813.03;;;-148.52;100.00
3254;BME280;1639;42.804;23.342;2023-04-20T07:24:55;72802.69;;;-148.52;100.00
3254;BME280;1639;42.804;23.342;2023-04-20T07:27:21;72779.94;;;-148.52;100.00
3254;BME280;1639;42.804;23.342;2023-04-20T07:29:46;72773.75;;;-148.52;100.00
3254;BME280;1639;42.804;23.342;2023-04-20T07:32:11;72753.06;;;-148.52;100.00
3254;BME280;1639;42.804;23.342;2023-04-20T07:34:37;72711.69;;;-148.52;100.00
3254;BME280;1639;42.804;23.342;2023-04-20T07:37:02;72664.13;;;-148.52;100.00
3254;BME280;1639;42.804;23.342;2023-04-20T07:39:28;72624.84;;;-148.52;100.00
3254;BME280;1639;42.804;23.342;2023-04-20T07:41:54;72595.88;;;-148.52;100.00
3254;BME280;1639;42.804;23.342;2023-04-20T07:44:20;72562.81;;;-148.52;100.00
3254;BME280;1639;42.804;23.342;2023-04-20T07:46:46;72552.47;;;-148.52;100.00
3254;BME280;1639;42.804;23.342;2023-04-20T07:49:12;72566.94;;;-148.52;100.00
3254;BME280;1639;42.804;23.342;2023-04-20T07:51:37;72583.47;;;-148.52;100.00
3254;BME280;1639;42.804;23.342;2023-04-20T07:54:03;72585.53;;;-148.52;100.00
3254;BME280;1639;42.804;23.342;2023-04-20T07:56:28;72537.97;;;-148.52;100.00
3254;BME280;1639;42.804;23.342;2023-04-20T07:58:54;72488.34;;;-148.52;100.00
3254;BME280;1639;42.804;23.342;2023-04-20T08:01:23;72451.13;;;-148.52;100.00
3254;BME280;1639;42.804;23.342;2023-04-20T08:03:51;72432.53;;;-148.52;100.00
3254;BME280;1639;42.804;23.342;2023-04-20T08:06:18;72438.72;;;-148.52;100.00
3254;BME280;1639;42.804;23.342;2023-04-20T08:08:44;72418.03;;;-148.52;100.00
3254;BME280;1639;42.804;23.342;2023-04-20T08:11:09;72451.13;;;-148.52;100.00
3254;BME280;1639;42.804;23.342;2023-04-20T08:13:36;72478.00;;;-148.52;100.00
3254;BME280;1639;42.804;23.342;2023-04-20T08:16:02;72500.75;;;-148.52;100.00
3254;BME280;1639;42.804;23.342;2023-04-20T08:18:27;72515.22;;;-148.52;100.00
3254;BME280;1639;42.804;23.342;2023-04-20T08:20:54;72533.84;;;-148.52;100.00
3254;BME280;1639;42.804;23.342;2023-04-20T08:23:20;72544.19;;;-148.52;100.00
3254;BME280;1639;42.804;23.342;2023-04-20T08:25:52;72548.31;;;-148.52;100.00
3254;BME280;1639;42.804;23.342;2023-04-20T08:28:17;72566.94;;;-148.52;100.00
3254;BME280;1639;42.804;23.342;2023-04-20T08:30:42;72579.34;;;-148.52;100.00
3254;BME280;1639;42.804;23.342;2023-04-20T08:33:09;72591.75;;;-148.52;100.00
3254;BME280;1639;42.804;23.342;2023-04-20T08:35:35;72597.97;;;-148.52;100.00
3254;BME280;1639;42.804;23.342;2023-04-20T08:38:01;72604.16;;;-148.52;100.00
3254;BME280;1639;42.804;23.342;2023-04-20T08:40:26;72610.38;;;-148.52;100.00
3254;BME280;1639;42.804;23.342;2023-04-20T08:42:52;72610.38;;;-148.52;100.00
3254;BME280;1639;42.804;23.342;2023-04-20T08:45:17;72583.47;;;-148.52;100.00
3254;BME280;1639;42.804;23.342;2023-04-20T08:47:44;72560.72;;;-148.52;100.00
3254;BME280;1639;42.804;23.342;2023-04-20T08:50:09;72537.97;;;-148.52;100.00
3254;BME280;1639;42.804;23.342;2023-04-20T08:52:35;72542.13;;;-148.52;100.00
3254;BME280;1639;42.804;23.342;2023-04-20T08:55:02;72540.06;;;-148.52;100.00
3254;BME280;1639;42.804;23.342;2023-04-20T08:57:28;72517.31;;;-148.52;100.00
3254;BME280;1639;42.804;23.342;2023-04-20T08:59:54;72515.22;;;-148.52;100.00
3254;BME280;1639;42.804;23.342;2023-04-20T09:02:21;72475.94;;;-148.52;100.00
3254;BME280;1639;42.804;23.342;2023-04-20T09:04:46;72442.84;;;-148.52;84.46
3254;BME280;1639;42.804;23.342;2023-04-20T09:07:20;72411.84;;;-148.52;77.99
3254;BME280;1639;42.804;23.342;2023-04-20T09:09:59;72378.75;;;-148.52;73.28
3254;BME280;1639;42.804;23.342;2023-04-20T09:12:27;72368.41;;;-148.52;74.81
3254;BME280;1639;42.804;23.342;2023-04-20T09:14:52;72376.69;;;-148.52;75.96
3254;BME280;1639;42.804;23.342;2023-04-20T09:17:30;72393.22;;;-148.52;65.73
3254;BME280;1639;42.804;23.342;2023-04-20T09:19:56;72401.50;;;-148.52;63.01
3254;BME280;1639;42.804;23.342;2023-04-20T09:22:32;72420.09;;;-148.52;62.88
3254;BME280;1639;42.804;23.342;2023-04-20T09:24:59;72442.84;;;-148.52;60.79
3254;BME280;1639;42.804;23.342;2023-04-20T09:27:25;72451.13;;;-148.52;60.93
3254;BME280;1639;42.804;23.342;2023-04-20T09:29:58;72467.66;;;-148.52;59.69
3254;BME280;1639;42.804;23.342;2023-04-20T09:32:26;72471.81;;;-148.52;60.76
3254;BME280;1639;42.804;23.342;2023-04-20T09:34:52;72475.94;;;-148.52;59.48
3254;BME280;1639;42.804;23.342;2023-04-20T09:37:19;72455.25;;;-148.52;59.83
3254;BME280;1639;42.804;23.342;2023-04-20T09:39:45;72447.00;;;-148.52;58.17
3254;BME280;1639;42.804;23.342;2023-04-20T09:42:12;72451.13;;;-148.52;58.65
3254;BME280;1639;42.804;23.342;2023-04-20T09:44:38;72455.25;;;-148.52;58.39
3254;BME280;1639;42.804;23.342;2023-04-20T09:47:05;72434.59;;;-148.52;59.34
3254;BME280;1639;42.804;23.342;2023-04-20T09:49:31;72364.28;;;-148.52;57.96
3254;BME280;1639;42.804;23.342;2023-04-20T09:52:00;72316.72;;;-148.52;57.59
3254;BME280;1639;42.804;23.342;2023-04-20T09:54:27;72289.84;;;-148.52;55.32
3254;BME280;1639;42.804;23.342;2023-04-20T09:56:53;72281.56;;;-148.52;55.57
3254;BME280;1639;42.804;23.342;2023-04-20T09:59:20;72248.47;;;-148.52;54.86
3254;BME280;1639;42.804;23.342;2023-04-20T10:01:45;72223.66;;;-148.52;52.68
3254;BME280;1639;42.804;23.342;2023-04-20T10:04:11;72215.38;;;-148.52;54.16
3254;BME280;1639;42.804;23.342;2023-04-20T10:06:39;72184.38;;;-148.52;53.05
3254;BME280;1639;42.804;23.342;2023-04-20T10:09:06;72169.91;;;-148.52;51.98
3254;BME280;1639;42.804;23.342;2023-04-20T10:11:37;72157.50;;;-148.52;51.83
3254;BME280;1639;42.804;23.342;2023-04-20T10:14:20;72161.63;;;-148.52;52.57
3254;BME280;1639;42.804;23.342;2023-04-20T10:19:45;72159.56;;;-148.52;51.97
3254;BME280;1639;42.804;23.342;2023-04-20T10:22:13;72145.09;;;-148.52;52.50
3254;BME280;1639;42.804;23.342;2023-04-20T10:24:49;72145.09;;;-148.52;51.31
3254;BME280;1639;42.804;23.342;2023-04-20T10:27:18;72114.06;;;-148.52;52.02
3254;BME280;1639;42.804;23.342;2023-04-20T10:29:44;72087.19;;;-148.52;49.67
3254;BME280;1639;42.804;23.342;2023-04-20T10:32:23;72099.59;;;-148.52;52.45
3254;BME280;1639;42.804;23.342;2023-04-20T10:35:06;72095.47;;;-148.52;52.32
3254;BME280;1639;42.804;23.342;2023-04-20T10:37:33;72070.66;;;-148.52;49.68
3254;BME280;1639;42.804;23.342;2023-04-20T10:39:59;72045.84;;;-148.52;49.83
3254;BME280;1639;42.804;23.342;2023-04-20T10:42:25;72010.69;;;-148.52;49.70
3254;BME280;1639;42.804;23.342;2023-04-20T10:44:52;72004.47;;;-148.52;49.97
3254;BME280;1639;42.804;23.342;2023-04-20T10:47:29;71983.81;;;-148.52;49.61
3254;BME280;1639;42.804;23.342;2023-04-20T10:50:13;71942.44;;;-148.52;49.42
3254;BME280;1639;42.804;23.342;2023-04-20T10:52:41;71961.06;;;-148.52;48.48
3254;BME280;1639;42.804;23.342;2023-04-20T10:55:18;71975.53;;;-148.52;48.19
3254;BME280;1639;42.804;23.342;2023-04-20T10:57:44;71963.13;;;-148.52;49.24
3254;BME280;1639;42.804;23.342;2023-04-20T11:00:27;71927.97;;;-148.52;47.57
3254;BME280;1639;42.804;23.342;2023-04-20T11:02:55;71915.56;;;-148.52;47.10
3254;BME280;1639;42.804;23.342;2023-04-20T11:05:24;71952.78;;;-148.52;47.87
3254;BME280;1639;42.804;23.342;2023-04-20T11:07:57;71977.59;;;-148.52;48.49
3254;BME280;1639;42.804;23.342;2023-04-20T11:10:36;71994.13;;;-148.52;48.67
3254;BME280;1639;42.804;23.342;2023-04-20T11:13:02;72012.75;;;-148.52;47.61
3254;BME280;1639;42.804;23.342;2023-04-20T11:15:31;72037.56;;;-148.52;47.89
3254;BME280;1639;42.804;23.342;2023-04-20T11:18:08;72045.84;;;-148.52;48.80
3254;BME280;1639;42.804;23.342;2023-04-20T11:20:34;72037.56;;;-148.52;51.43
3254;BME280;1639;42.804;23.342;2023-04-20T11:23:00;72027.22;;;-148.52;51.10
3254;BME280;1639;42.804;23.342;2023-04-20T11:25:29;72031.38;;;-148.52;48.64
3254;BME280;1639;42.804;23.342;2023-04-20T11:28:04;72033.44;;;-148.52;48.61
3254;BME280;1639;42.804;23.342;2023-04-20T11:30:39;72029.28;;;-148.52;49.87
3254;BME280;1639;42.804;23.342;2023-04-20T11:33:05;72006.56;;;-148.52;49.44
3254;BME280;1639;42.804;23.342;2023-04-20T11:35:38;72012.75;;;-148.52;48.44
3254;BME280;1639;42.804;23.342;2023-04-20T11:38:04;72033.44;;;-148.52;48.72
3254;BME280;1639;42.804;23.342;2023-04-20T11:40:29;72049.97;;;-148.52;48.12
3254;BME280;1639;42.804;23.342;2023-04-20T11:42:55;72058.25;;;-148.52;48.51
3254;BME280;1639;42.804;23.342;2023-04-20T11:45:20;72087.19;;;-148.52;49.50
3254;BME280;1639;42.804;23.342;2023-04-20T11:47:46;72091.31;;;-148.52;49.88
3254;BME280;1639;42.804;23.342;2023-04-20T11:50:11;72132.69;;;-148.52;51.08
3254;BME280;1639;42.804;23.342;2023-04-20T11:52:37;72118.22;;;-148.52;51.03
3254;BME280;1639;42.804;23.342;2023-04-20T11:55:02;72116.13;;;-148.52;50.64
3254;BME280;1639;42.804;23.342;2023-04-20T11:57:28;72124.41;;;-148.52;51.28
3254;BME280;1639;42.804;23.342;2023-04-20T11:59:53;72159.56;;;-148.52;50.54
3254;BME280;1639;42.804;23.342;2023-04-20T12:02:18;72176.09;;;-148.52;51.41
3254;BME280;1639;42.804;23.342;2023-04-20T12:04:44;72211.25;;;-148.52;52.27
3254;BME280;1639;42.804;23.342;2023-04-20T12:07:09;72215.38;;;-148.52;52.81
3254;BME280;1639;42.804;23.342;2023-04-20T12:09:34;72227.78;;;-148.52;53.46
3254;BME280;1639;42.804;23.342;2023-04-20T12:12:03;72271.22;;;-148.52;52.44
3254;BME280;1639;42.804;23.342;2023-04-20T12:14:29;72302.25;;;-148.52;53.76
3254;BME280;1639;42.804;23.342;2023-04-20T12:16:54;72320.84;;;-148.52;54.64
3254;BME280;1639;42.804;23.342;2023-04-20T12:19:19;72343.59;;;-148.52;56.04
3254;BME280;1639;42.804;23.342;2023-04-20T12:21:45;72343.59;;;-148.52;57.99
3254;BME280;1639;42.804;23.342;2023-04-20T12:24:12;72349.81;;;-148.52;55.73
3254;BME280;1639;42.804;23.342;2023-04-20T12:26:37;72368.41;;;-148.52;57.00
3254;BME280;1639;42.804;23.342;2023-04-20T12:29:03;72382.88;;;-148.52;57.70
3254;BME280;1639;42.804;23.342;2023-04-20T12:31:28;72389.09;;;-148.52;58.10
3254;BME280;1639;42.804;23.342;2023-04-20T12:33:53;72447.00;;;-148.52;56.38
3254;BME280;1639;42.804;23.342;2023-04-20T12:36:19;72434.59;;;-148.52;55.89
3254;BME280;1639;42.804;23.342;2023-04-20T12:38:44;72399.44;;;-148.52;56.43
3254;BME280;1639;42.804;23.342;2023-04-20T12:41:13;72331.19;;;-148.52;56.26
3254;BME280;1639;42.804;23.342;2023-04-20T12:43:39;72300.16;;;-148.52;54.06